Time;durP1;ratioP1;P1;durP2;ratioP2;P2;SDS_P1;SDS_P2;PMS_P1;PMS_P2;Temp;Humidity;BMP_temperature;BMP_pressure;BME280_temperature;BME280_humidity;BME280_pressure;Samples;Min_cycle;Max_cycle;Signal;HPM_P1;HPM_P2
2023/01/10 00:00:22;;;;;;;2.92;2.50;;;4.40;99.90;;;;;;5012123;28;20076;-50
2023/01/10 00:02:49;;;;;;;2.70;2.50;;;4.40;99.90;;;;;;5012031;28;20026;-48
2023/01/10 00:05:15;;;;;;;3.90;3.33;;;4.40;99.90;;;;;;5012016;28;20105;-49
2023/01/10 00:07:40;;;;;;;3.58;2.60;;;4.30;99.90;;;;;;5012095;28;20093;-51
2023/01/10 00:10:07;;;;;;;2.92;2.63;;;4.40;99.90;;;;;;5027045;28;20478;-52
2023/01/10 00:15:17;;;;;;;3.45;2.40;;;4.30;99.90;;;;;;5011747;28;20065;-51
2023/01/10 00:17:42;;;;;;;5.78;4.30;;;4.20;99.90;;;;;;5012011;28;20497;-50
2023/01/10 00:20:09;;;;;;;2.47;2.30;;;4.30;99.90;;;;;;5011811;28;20030;-48
2023/01/10 00:22:34;;;;;;;3.83;2.30;;;4.20;99.90;;;;;;5011862;28;20034;-50
2023/01/10 00:25:00;;;;;;;6.70;2.30;;;4.20;99.90;;;;;;5027124;28;20022;-51
2023/01/10 00:27:26;;;;;;;3.88;2.75;;;4.20;99.90;;;;;;5011885;28;20100;-48
2023/01/10 00:29:52;;;;;;;3.17;2.83;;;4.20;99.90;;;;;;5011734;28;20080;-49
2023/01/10 00:32:18;;;;;;;2.67;2.47;;;4.10;99.90;;;;;;5011812;28;20465;-49
2023/01/10 00:34:44;;;;;;;2.38;2.17;;;4.10;99.90;;;;;;5011701;28;20026;-50
2023/01/10 00:37:10;;;;;;;2.63;2.42;;;4.20;99.90;;;;;;5011729;28;20018;-50
2023/01/10 00:39:35;;;;;;;2.20;2.10;;;4.10;99.90;;;;;;5011768;28;20018;-49
2023/01/10 00:44:45;;;;;;;2.80;2.60;;;4.00;99.90;;;;;;5012714;28;20058;-52
2023/01/10 00:47:12;;;;;;;2.75;2.55;;;4.00;99.90;;;;;;5015281;28;20099;-54
2023/01/10 00:49:38;;;;;;;3.53;2.63;;;4.10;99.90;;;;;;5015311;28;20034;-52
2023/01/10 00:52:04;;;;;;;3.03;2.60;;;4.00;99.90;;;;;;5015230;28;20029;-50
2023/01/10 00:54:30;;;;;;;4.07;3.08;;;4.10;99.90;;;;;;5015098;28;20038;-51
2023/01/10 00:56:56;;;;;;;2.60;2.30;;;4.10;99.90;;;;;;5014981;28;20033;-50
2023/01/10 00:59:22;;;;;;;6.35;3.17;;;4.10;99.90;;;;;;5015097;28;20485;-50
2023/01/10 01:01:49;;;;;;;2.75;2.55;;;4.10;99.90;;;;;;5014542;28;20032;-54
2023/01/10 01:04:15;;;;;;;2.55;2.35;;;4.10;99.90;;;;;;5014605;28;20075;-52
2023/01/10 01:06:43;;;;;;;3.45;2.40;;;4.10;99.90;;;;;;5014363;28;20093;-51
2023/01/10 01:09:09;;;;;;;2.95;2.38;;;4.10;99.90;;;;;;5014292;28;20106;-52
2023/01/10 01:11:34;;;;;;;5.07;2.60;;;4.00;99.90;;;;;;5014312;28;20105;-49
2023/01/10 01:14:00;;;;;;;4.53;2.45;;;4.00;99.90;;;;;;5013885;28;20030;-51
2023/01/10 01:16:26;;;;;;;2.78;2.58;;;4.10;99.90;;;;;;5013686;28;20029;-48
2023/01/10 01:18:51;;;;;;;2.55;2.35;;;4.00;99.90;;;;;;5014130;28;20034;-49
2023/01/10 01:21:17;;;;;;;11.38;2.85;;;4.00;99.90;;;;;;5014533;28;20038;-47
2023/01/10 01:23:43;;;;;;;2.67;2.47;;;3.90;99.90;;;;;;5014509;28;20101;-51
2023/01/10 01:26:09;;;;;;;3.60;2.40;;;3.90;99.90;;;;;;5014593;28;20026;-54
2023/01/10 01:28:36;;;;;;;3.15;2.90;;;3.90;99.90;;;;;;5014433;28;20022;-49
2023/01/10 01:31:09;;;;;;;12.60;2.65;;;3.90;99.90;;;;;;5014420;28;20028;-48
2023/01/10 01:33:35;;;;;;;2.80;2.60;;;3.90;99.90;;;;;;5014377;28;20022;-48
2023/01/10 01:36:00;;;;;;;2.38;2.28;;;3.80;99.90;;;;;;5014218;28;20575;-51
2023/01/10 01:38:26;;;;;;;2.92;2.38;;;3.80;99.90;;;;;;5014345;28;20033;-52
2023/01/10 01:40:52;;;;;;;5.90;3.13;;;3.90;99.90;;;;;;5014202;28;20030;-49
2023/01/10 01:43:30;;;;;;;3.13;2.20;;;3.90;99.90;;;;;;5014063;28;20037;-53
2023/01/10 01:46:01;;;;;;;2.78;2.58;;;3.80;99.90;;;;;;5013944;28;20459;-50
2023/01/10 01:48:37;;;;;;;2.55;2.38;;;3.90;99.90;;;;;;5014060;28;20029;-51
2023/01/10 01:51:16;;;;;;;2.38;2.17;;;3.80;99.90;;;;;;5014058;28;20022;-49
2023/01/10 01:53:58;;;;;;;2.90;2.70;;;3.90;99.90;;;;;;5014038;28;20018;-51
2023/01/10 01:56:37;;;;;;;5.82;3.10;;;3.90;99.90;;;;;;5013808;28;20113;-49
2023/01/10 01:59:12;;;;;;;3.13;2.75;;;4.00;99.90;;;;;;5013962;28;20032;-48
2023/01/10 02:01:40;;;;;;;3.78;2.92;;;3.90;99.90;;;;;;5013736;28;20061;-50
2023/01/10 02:04:16;;;;;;;5.50;2.90;;;3.90;99.90;;;;;;5013829;28;20036;-51
2023/01/10 02:06:43;;;;;;;2.90;2.70;;;3.90;99.90;;;;;;5013830;28;20128;-53
2023/01/10 02:09:42;;;;;;;3.30;3.00;;;3.90;99.90;;;;;;5013779;28;20022;-54
2023/01/10 02:12:08;;;;;;;3.33;3.03;;;3.90;99.90;;;;;;5013614;28;20049;-51
2023/01/10 02:14:36;;;;;;;3.22;2.97;;;3.90;99.90;;;;;;5013490;28;20041;-50
2023/01/10 02:17:02;;;;;;;3.22;3.03;;;3.90;99.90;;;;;;5013626;28;20026;-52
2023/01/10 02:19:37;;;;;;;4.55;2.90;;;3.80;99.90;;;;;;5013488;28;20044;-49
2023/01/10 02:22:41;;;;;;;5.65;2.65;;;3.90;99.90;;;;;;5013641;28;20396;-49
2023/01/10 02:25:10;;;;;;;5.07;3.10;;;3.90;99.90;;;;;;5007262;28;20374;-49
2023/01/10 02:27:56;;;;;;;3.80;2.90;;;3.90;99.90;;;;;;5013417;28;20088;-53
2023/01/10 02:30:37;;;;;;;3.30;3.10;;;3.90;99.90;;;;;;5013319;28;20108;-50
2023/01/10 02:33:21;;;;;;;3.22;2.92;;;3.90;99.90;;;;;;5013338;28;20034;-52
2023/01/10 02:35:55;;;;;;;4.03;3.63;;;3.90;99.90;;;;;;5013222;28;20030;-51
2023/01/10 02:38:29;;;;;;;4.43;3.75;;;3.90;99.90;;;;;;5013180;28;20082;-50
2023/01/10 02:41:25;;;;;;;5.05;3.33;;;3.90;99.90;;;;;;5028409;28;20033;-50
2023/01/10 02:44:05;;;;;;;3.20;3.00;;;3.90;99.90;;;;;;5013031;28;20025;-53
2023/01/10 02:46:32;;;;;;;3.53;3.00;;;3.90;99.90;;;;;;5012935;28;20569;-52
2023/01/10 02:48:58;;;;;;;3.13;2.92;;;3.90;99.90;;;;;;5013064;28;20369;-51
2023/01/10 02:51:29;;;;;;;4.18;3.80;;;3.90;99.90;;;;;;5013008;28;20113;-51
2023/01/10 02:54:07;;;;;;;3.53;3.22;;;3.90;99.90;;;;;;5012970;28;20109;-48
2023/01/10 02:56:44;;;;;;;3.65;3.35;;;3.90;99.90;;;;;;5012847;28;20455;-49
2023/01/10 02:59:22;;;;;;;3.60;3.30;;;3.90;99.90;;;;;;5012783;28;20022;-53
2023/01/10 03:01:56;;;;;;;3.45;3.22;;;4.00;99.90;;;;;;5012805;28;20053;-49
2023/01/10 03:04:31;;;;;;;9.65;5.80;;;4.00;99.90;;;;;;5012642;28;20026;-51
2023/01/10 03:07:38;;;;;;;10.25;6.50;;;3.90;99.90;;;;;;5012752;28;20104;-52
2023/01/10 03:10:30;;;;;;;4.32;3.85;;;3.90;99.90;;;;;;4970752;28;20019;-51
2023/01/10 03:13:20;;;;;;;4.10;3.70;;;4.00;99.90;;;;;;4998062;28;20045;-54
2023/01/10 03:15:48;;;;;;;4.57;4.07;;;4.00;99.90;;;;;;5012808;28;20362;-51
2023/01/10 03:18:21;;;;;;;4.53;4.10;;;4.00;99.90;;;;;;5012553;28;20033;-51
2023/01/10 03:20:50;;;;;;;3.63;3.30;;;3.90;99.90;;;;;;5012482;28;20080;-53
2023/01/10 03:23:18;;;;;;;5.22;4.72;;;4.00;99.90;;;;;;5012457;28;20030;-50
2023/01/10 03:25:49;;;;;;;4.25;3.85;;;4.00;99.90;;;;;;5012496;28;20028;-52
2023/01/10 03:28:35;;;;;;;4.07;3.78;;;4.00;99.90;;;;;;5012282;28;20613;-51
2023/01/10 03:31:24;;;;;;;5.78;4.03;;;4.00;99.90;;;;;;5027536;28;20026;-49
2023/01/10 03:33:49;;;;;;;4.28;3.88;;;4.00;99.90;;;;;;5012111;28;20635;-53
2023/01/10 03:36:30;;;;;;;3.78;3.47;;;4.00;99.90;;;;;;5012293;28;20042;-53
2023/01/10 03:39:14;;;;;;;3.83;3.58;;;4.00;99.90;;;;;;5012357;28;20041;-53
2023/01/10 03:41:51;;;;;;;4.95;3.90;;;4.00;99.90;;;;;;5012140;28;20030;-51
2023/01/10 03:47:12;;;;;;;4.30;3.85;;;4.00;99.90;;;;;;5012286;28;20083;-49
2023/01/10 03:49:41;;;;;;;3.88;3.45;;;4.00;99.90;;;;;;5012209;28;20023;-51
2023/01/10 03:52:11;;;;;;;4.70;4.30;;;4.00;99.90;;;;;;5012138;28;20022;-52
2023/01/10 03:54:36;;;;;;;5.72;4.22;;;4.00;99.90;;;;;;5012140;28;20511;-52
2023/01/10 03:57:04;;;;;;;4.13;3.67;;;4.00;99.90;;;;;;5012123;28;20069;-50
2023/01/10 03:59:30;;;;;;;4.45;4.03;;;4.00;99.90;;;;;;5012134;28;20052;-52
2023/01/10 04:01:56;;;;;;;4.45;3.83;;;4.10;99.90;;;;;;5012132;28;20512;-54
2023/01/10 04:04:21;;;;;;;4.95;4.43;;;4.10;99.90;;;;;;5027076;28;20026;-51
2023/01/10 04:06:47;;;;;;;6.60;3.55;;;4.10;99.90;;;;;;5011957;28;20026;-51
2023/01/10 04:09:13;;;;;;;4.13;3.72;;;4.00;99.90;;;;;;5012054;28;20104;-54
2023/01/10 04:11:38;;;;;;;3.42;3.22;;;4.10;99.90;;;;;;5012014;28;20453;-54
2023/01/10 04:14:04;;;;;;;5.40;4.32;;;4.10;99.90;;;;;;5012004;28;20034;-53
2023/01/10 04:16:30;;;;;;;6.45;3.92;;;4.10;99.90;;;;;;5011921;28;20030;-52
2023/01/10 04:18:56;;;;;;;5.82;4.40;;;4.10;99.90;;;;;;5027007;28;20433;-52
2023/01/10 04:21:22;;;;;;;5.65;4.10;;;4.10;99.90;;;;;;5015723;28;20052;-49
2023/01/10 04:23:47;;;;;;;4.72;3.88;;;4.10;99.90;;;;;;5015767;28;20025;-52
2023/01/10 04:26:13;;;;;;;4.35;3.50;;;4.10;99.90;;;;;;5015702;28;20028;-54
2023/01/10 04:28:38;;;;;;;3.65;3.35;;;4.10;99.90;;;;;;5015590;28;20527;-50
2023/01/10 04:31:04;;;;;;;4.20;3.80;;;4.10;99.90;;;;;;5015593;28;20144;-52
2023/01/10 04:33:31;;;;;;;9.15;3.80;;;4.10;99.90;;;;;;5015470;28;20033;-54
2023/01/10 04:35:56;;;;;;;3.97;3.60;;;4.20;99.90;;;;;;5015488;28;20057;-54
2023/01/10 04:38:22;;;;;;;5.45;3.53;;;4.10;99.90;;;;;;5015543;28;20054;-52
2023/01/10 04:40:55;;;;;;;3.95;3.42;;;4.20;99.90;;;;;;5015393;28;20076;-54
2023/01/10 04:43:22;;;;;;;12.05;5.07;;;4.20;99.90;;;;;;5015343;28;20030;-50
2023/01/10 04:45:48;;;;;;;4.22;3.92;;;4.10;99.90;;;;;;5015136;28;20042;-51
2023/01/10 04:48:13;;;;;;;6.25;3.92;;;4.10;99.90;;;;;;5015173;28;20100;-53
2023/01/10 04:50:39;;;;;;;3.92;3.63;;;4.20;99.90;;;;;;5019853;28;20022;-51
2023/01/10 04:53:05;;;;;;;3.85;3.55;;;4.10;99.90;;;;;;5034949;28;20030;-51
2023/01/10 04:55:32;;;;;;;4.43;3.80;;;4.10;99.90;;;;;;5034927;28;20400;-52
2023/01/10 04:57:58;;;;;;;7.18;4.13;;;4.10;99.90;;;;;;5034888;28;20037;-49
2023/01/10 05:00:23;;;;;;;4.05;3.65;;;4.10;99.90;;;;;;5034684;28;20054;-49
2023/01/10 05:02:54;;;;;;;6.18;4.35;;;4.10;99.90;;;;;;5034618;28;20081;-54
2023/01/10 05:05:20;;;;;;;4.30;4.00;;;4.10;99.90;;;;;;5034802;28;20056;-53
2023/01/10 05:07:46;;;;;;;4.70;4.28;;;4.10;99.90;;;;;;5034727;28;20417;-53
2023/01/10 05:10:12;;;;;;;4.78;4.40;;;4.10;99.90;;;;;;5034498;28;20031;-49
2023/01/10 05:12:38;;;;;;;7.65;4.40;;;4.10;99.90;;;;;;5034500;28;20026;-51
2023/01/10 05:15:04;;;;;;;4.40;4.00;;;4.10;99.90;;;;;;5034580;28;20033;-54
2023/01/10 05:17:30;;;;;;;4.45;4.05;;;4.10;99.90;;;;;;5034247;28;20079;-50
2023/01/10 05:19:56;;;;;;;7.70;4.00;;;4.10;99.90;;;;;;5034431;28;20125;-50
2023/01/10 05:22:21;;;;;;;5.18;4.13;;;4.10;99.90;;;;;;5034308;28;20067;-52
2023/01/10 05:24:47;;;;;;;5.03;4.63;;;4.10;99.90;;;;;;5034339;28;20026;-56
2023/01/10 05:27:13;;;;;;;7.15;4.05;;;4.10;99.90;;;;;;5034301;28;20025;-52
2023/01/10 05:29:38;;;;;;;4.22;3.90;;;4.20;99.90;;;;;;5034238;28;20030;-53
2023/01/10 05:32:04;;;;;;;4.63;4.22;;;4.10;99.90;;;;;;5031853;28;20025;-53
2023/01/10 05:34:30;;;;;;;4.85;4.07;;;4.20;99.90;;;;;;5034167;28;20038;-52
2023/01/10 05:36:55;;;;;;;4.60;4.10;;;4.20;99.90;;;;;;5034099;28;20079;-51
2023/01/10 05:39:21;;;;;;;4.63;4.13;;;4.10;99.90;;;;;;5034024;28;20021;-55
2023/01/10 05:41:47;;;;;;;4.25;3.85;;;4.10;99.90;;;;;;5034011;28;20099;-52
2023/01/10 05:44:12;;;;;;;4.30;3.90;;;4.20;99.90;;;;;;5033506;28;20484;-50
2023/01/10 05:46:38;;;;;;;5.80;5.20;;;4.20;99.90;;;;;;5033359;28;20038;-53
2023/01/10 05:49:03;;;;;;;5.30;4.80;;;4.10;99.90;;;;;;5033924;28;20018;-53
2023/01/10 05:51:30;;;;;;;8.73;4.10;;;4.20;99.90;;;;;;5033818;28;20384;-53
2023/01/10 05:53:57;;;;;;;5.25;4.47;;;4.10;99.90;;;;;;5033842;28;20022;-53
2023/01/10 05:56:23;;;;;;;9.02;5.90;;;4.10;99.90;;;;;;5033801;28;20380;-50
2023/01/10 05:58:49;;;;;;;5.97;5.15;;;4.10;99.90;;;;;;5033676;28;20028;-48
2023/01/10 06:01:15;;;;;;;4.68;4.03;;;4.20;99.90;;;;;;5032294;28;20021;-53
2023/01/10 06:03:40;;;;;;;4.55;4.18;;;4.20;99.90;;;;;;5033663;28;20542;-54
2023/01/10 06:06:06;;;;;;;4.00;3.63;;;4.20;99.90;;;;;;5033537;28;20540;-52
2023/01/10 06:08:32;;;;;;;6.18;4.57;;;4.10;99.90;;;;;;5033451;28;20025;-53
2023/01/10 06:10:57;;;;;;;4.53;4.13;;;4.10;99.90;;;;;;5033526;28;20049;-49
2023/01/10 06:13:23;;;;;;;4.45;4.13;;;4.20;99.90;;;;;;5033373;28;20033;-51
2023/01/10 06:15:49;;;;;;;12.88;11.38;;;4.20;99.90;;;;;;5032980;28;20033;-54
2023/01/10 06:18:15;;;;;;;4.45;4.05;;;4.20;99.90;;;;;;5033382;28;20018;-52
2023/01/10 06:20:42;;;;;;;3.22;3.00;;;4.10;99.90;;;;;;5033095;28;20091;-54
2023/01/10 06:23:08;;;;;;;4.95;4.30;;;4.20;99.90;;;;;;5033085;28;20564;-51
2023/01/10 06:25:38;;;;;;;6.90;3.65;;;4.20;99.90;;;;;;5033088;28;20021;-55
2023/01/10 06:28:12;;;;;;;3.50;3.30;;;4.20;99.90;;;;;;5033021;28;20142;-51
2023/01/10 06:30:40;;;;;;;3.63;3.30;;;4.20;99.90;;;;;;5033033;28;20030;-50
2023/01/10 06:33:07;;;;;;;4.15;3.85;;;4.20;99.90;;;;;;5032848;28;20044;-52
2023/01/10 06:35:34;;;;;;;4.18;3.55;;;4.20;99.90;;;;;;5032968;28;20052;-51
2023/01/10 06:38:00;;;;;;;4.30;3.90;;;4.10;99.90;;;;;;5033020;28;20179;-52
2023/01/10 06:40:27;;;;;;;3.80;3.40;;;4.20;99.90;;;;;;5033040;28;20523;-54
2023/01/10 06:42:52;;;;;;;5.05;4.55;;;4.20;99.90;;;;;;5032503;28;20045;-49
2023/01/10 06:45:18;;;;;;;4.72;4.32;;;4.10;99.90;;;;;;5032873;28;20046;-50
2023/01/10 06:47:44;;;;;;;5.85;5.35;;;4.10;99.90;;;;;;5032804;28;20159;-54
2023/01/10 06:50:11;;;;;;;8.90;6.05;;;4.10;99.90;;;;;;5031422;28;20112;-52
2023/01/10 06:52:37;;;;;;;6.60;6.00;;;4.10;99.90;;;;;;5032993;28;20021;-50
2023/01/10 06:55:03;;;;;;;6.03;5.53;;;4.10;99.90;;;;;;5032765;28;20021;-51
2023/01/10 06:57:29;;;;;;;6.05;5.55;;;4.10;99.90;;;;;;5032646;28;20104;-57
2023/01/10 06:59:54;;;;;;;5.47;4.80;;;4.10;99.90;;;;;;5032511;28;20108;-56
2023/01/10 07:02:20;;;;;;;7.80;6.70;;;4.10;99.90;;;;;;5032662;28;20430;-52
2023/01/10 07:04:47;;;;;;;7.00;6.40;;;4.20;99.90;;;;;;5032779;28;20412;-56
2023/01/10 07:07:13;;;;;;;9.32;8.25;;;4.20;99.90;;;;;;5032575;28;20029;-56
2023/01/10 07:09:39;;;;;;;16.95;12.00;;;4.10;99.90;;;;;;5032360;28;20025;-55
2023/01/10 07:12:04;;;;;;;7.93;7.13;;;4.10;99.90;;;;;;5032303;28;20022;-55
2023/01/10 07:14:30;;;;;;;6.18;5.57;;;4.10;99.90;;;;;;5032334;28;20034;-54
2023/01/10 07:16:56;;;;;;;5.10;4.70;;;4.20;99.90;;;;;;5032353;28;20034;-57
2023/01/10 07:19:21;;;;;;;6.13;5.63;;;4.20;99.90;;;;;;5032240;28;20128;-52
2023/01/10 07:21:47;;;;;;;5.70;5.18;;;4.10;99.90;;;;;;5032378;28;20028;-50
2023/01/10 07:24:13;;;;;;;5.90;5.40;;;4.30;99.90;;;;;;5032060;28;20084;-56
2023/01/10 07:26:38;;;;;;;6.20;5.70;;;4.30;99.90;;;;;;5030850;28;20405;-53
2023/01/10 07:29:04;;;;;;;10.90;8.18;;;4.20;99.90;;;;;;5032237;28;20092;-54
2023/01/10 07:31:30;;;;;;;5.72;5.13;;;4.30;99.90;;;;;;5032272;28;20064;-51
2023/01/10 07:33:55;;;;;;;6.38;5.53;;;4.30;99.90;;;;;;5031975;28;20094;-52
2023/01/10 07:36:21;;;;;;;6.80;6.13;;;4.30;99.90;;;;;;5032115;28;20468;-54
2023/01/10 07:38:47;;;;;;;16.55;9.02;;;4.30;99.90;;;;;;5032039;28;20105;-55
2023/01/10 07:41:13;;;;;;;20.88;11.88;;;4.30;99.90;;;;;;5031639;28;20130;-53
2023/01/10 07:43:38;;;;;;;45.67;21.92;;;4.20;99.90;;;;;;5031790;28;20025;-55
2023/01/10 07:46:08;;;;;;;14.32;8.25;;;4.20;99.90;;;;;;5031891;28;20099;-55
2023/01/10 07:48:35;;;;;;;47.90;21.90;;;4.30;99.90;;;;;;5031544;28;20071;-53
2023/01/10 07:51:01;;;;;;;9.70;6.78;;;4.30;99.90;;;;;;5031099;28;20014;-49
2023/01/10 07:53:27;;;;;;;6.47;5.82;;;4.30;99.90;;;;;;5030952;28;20029;-50
2023/01/10 07:55:57;;;;;;;7.72;6.35;;;4.40;99.90;;;;;;5034409;28;20021;-52
2023/01/10 07:58:23;;;;;;;5.30;4.90;;;4.40;99.90;;;;;;5036606;28;20025;-49
2023/01/10 08:00:49;;;;;;;6.22;5.63;;;4.40;99.90;;;;;;5035876;28;20071;-52
2023/01/10 08:03:16;;;;;;;6.03;5.53;;;4.40;99.90;;;;;;5035749;28;20086;-50
2023/01/10 08:05:42;;;;;;;7.57;6.00;;;4.30;99.90;;;;;;5035866;28;20163;-53
2023/01/10 08:08:10;;;;;;;5.57;5.13;;;4.40;99.90;;;;;;5035710;28;20025;-53
2023/01/10 08:10:37;;;;;;;6.20;5.70;;;4.40;99.90;;;;;;5035798;28;20029;-52
2023/01/10 08:13:03;;;;;;;6.03;5.43;;;4.40;99.90;;;;;;5034343;28;20032;-54
2023/01/10 08:15:29;;;;;;;5.88;5.38;;;4.40;99.90;;;;;;5035706;28;20364;-51
2023/01/10 08:18:01;;;;;;;5.90;5.40;;;4.40;99.90;;;;;;5035593;28;20031;-52
2023/01/10 08:20:28;;;;;;;7.88;5.90;;;4.50;99.90;;;;;;5035454;28;20046;-52
2023/01/10 08:22:56;;;;;;;5.90;5.40;;;4.50;99.90;;;;;;5035386;28;20424;-50
2023/01/10 08:25:22;;;;;;;6.35;5.75;;;4.50;99.90;;;;;;5034357;28;20024;-54
2023/01/10 08:27:47;;;;;;;5.65;5.20;;;4.60;99.90;;;;;;5035371;28;20104;-53
2023/01/10 08:30:13;;;;;;;8.23;6.95;;;4.60;99.90;;;;;;5035404;28;20025;-53
2023/01/10 08:32:39;;;;;;;5.85;5.35;;;4.50;99.90;;;;;;5035158;28;20021;-49
2023/01/10 08:35:05;;;;;;;5.85;5.40;;;4.50;99.90;;;;;;5035309;28;20021;-49
2023/01/10 08:37:31;;;;;;;6.45;5.95;;;4.50;99.90;;;;;;5035153;28;20061;-52
2023/01/10 08:39:56;;;;;;;6.00;5.60;;;4.60;99.90;;;;;;5035065;28;20021;-51
2023/01/10 08:42:22;;;;;;;6.03;5.53;;;4.60;99.90;;;;;;5035209;28;20026;-50
2023/01/10 08:44:47;;;;;;;5.80;5.35;;;4.60;99.90;;;;;;5034911;28;20045;-51
2023/01/10 08:47:13;;;;;;;6.35;5.85;;;4.60;99.90;;;;;;5035089;28;20017;-50
2023/01/10 08:49:39;;;;;;;8.20;6.13;;;4.60;99.90;;;;;;5035080;28;20018;-53
2023/01/10 08:52:06;;;;;;;6.55;5.90;;;4.70;99.90;;;;;;5034798;28;20076;-53
2023/01/10 08:54:32;;;;;;;5.90;5.40;;;4.70;99.90;;;;;;5034899;28;20030;-54
2023/01/10 08:56:58;;;;;;;8.20;7.40;;;4.60;99.90;;;;;;5033512;28;20026;-50
2023/01/10 08:59:24;;;;;;;8.77;7.35;;;4.50;99.90;;;;;;5034891;28;20029;-52
2023/01/10 09:01:50;;;;;;;6.00;5.13;;;4.50;99.90;;;;;;5029317;28;20037;-51
2023/01/10 09:04:16;;;;;;;4.30;4.00;;;4.60;99.90;;;;;;5031655;28;20431;-56
2023/01/10 09:06:42;;;;;;;5.38;4.88;;;4.50;99.90;;;;;;5034245;28;20030;-52
2023/01/10 09:09:08;;;;;;;4.50;4.10;;;4.50;99.90;;;;;;5034555;28;20029;-54
2023/01/10 09:11:34;;;;;;;3.72;3.42;;;4.50;99.90;;;;;;5034258;28;20021;-51
2023/01/10 09:14:00;;;;;;;3.08;2.88;;;4.50;99.90;;;;;;5033026;28;20171;-49
2023/01/10 09:16:25;;;;;;;3.53;3.20;;;4.50;99.90;;;;;;5034312;28;20037;-52
2023/01/10 09:18:51;;;;;;;3.22;3.03;;;4.50;99.90;;;;;;5034380;28;20037;-52
2023/01/10 09:21:17;;;;;;;2.88;2.67;;;4.50;99.90;;;;;;5033783;28;20116;-52
2023/01/10 09:23:43;;;;;;;3.08;2.88;;;4.60;99.90;;;;;;5032968;28;20079;-51
2023/01/10 09:26:09;;;;;;;2.80;2.60;;;4.50;99.90;;;;;;5034360;28;20056;-51
2023/01/10 09:28:35;;;;;;;3.17;2.95;;;4.50;99.90;;;;;;5034091;28;20079;-52
2023/01/10 09:31:03;;;;;;;3.40;3.20;;;4.40;99.90;;;;;;5034017;28;20030;-54
2023/01/10 09:33:29;;;;;;;3.20;3.00;;;4.30;99.90;;;;;;5034006;28;20030;-54
2023/01/10 09:35:57;;;;;;;3.30;3.10;;;4.20;99.90;;;;;;5033950;28;20160;-52
2023/01/10 09:38:23;;;;;;;3.47;3.28;;;4.40;99.90;;;;;;5032416;28;20069;-49
2023/01/10 09:40:58;;;;;;;3.35;3.15;;;4.40;99.90;;;;;;5033496;28;20072;-52
2023/01/10 09:43:26;;;;;;;3.80;3.50;;;4.30;99.90;;;;;;5031492;28;20042;-52
2023/01/10 09:46:13;;;;;;;3.80;3.50;;;4.40;99.90;;;;;;5032247;28;20041;-54
2023/01/10 09:48:59;;;;;;;4.15;3.80;;;4.50;99.90;;;;;;5033476;28;20065;-54
2023/01/10 09:51:42;;;;;;;5.22;4.72;;;4.40;99.90;;;;;;5033406;28;20379;-51
2023/01/10 09:54:30;;;;;;;4.00;3.70;;;4.40;99.90;;;;;;5033317;28;20029;-53
2023/01/10 09:56:59;;;;;;;4.22;3.88;;;4.50;99.90;;;;;;5033552;28;20334;-52
2023/01/10 09:59:31;;;;;;;5.00;4.60;;;4.50;99.90;;;;;;5033525;28;20426;-53
2023/01/10 10:02:13;;;;;;;5.13;4.72;;;4.50;99.90;;;;;;5033453;28;20385;-52
2023/01/10 10:04:40;;;;;;;7.15;5.95;;;4.60;99.90;;;;;;5032825;28;20124;-56
2023/01/10 10:07:13;;;;;;;6.30;5.70;;;4.50;99.90;;;;;;5033505;28;20096;-54
2023/01/10 10:09:39;;;;;;;8.43;7.63;;;4.40;99.90;;;;;;5033173;28;20033;-52
2023/01/10 10:12:17;;;;;;;10.55;9.50;;;4.30;99.90;;;;;;5033273;28;20017;-56
2023/01/10 10:15:01;;;;;;;7.50;6.80;;;4.30;99.90;;;;;;5033265;28;20032;-49
2023/01/10 10:17:26;;;;;;;7.28;6.68;;;4.40;99.90;;;;;;5032578;28;20041;-50
2023/01/10 10:20:31;;;;;;;8.25;7.35;;;4.40;99.90;;;;;;5031845;28;20373;-54
2023/01/10 10:23:17;;;;;;;8.77;7.78;;;4.40;99.90;;;;;;5033153;28;20082;-49
2023/01/10 10:26:10;;;;;;;8.70;7.85;;;4.40;99.90;;;;;;5032974;28;20140;-55
2023/01/10 10:29:20;;;;;;;23.05;13.65;;;4.40;99.90;;;;;;5033052;28;20016;-54
2023/01/10 10:32:17;;;;;;;17.65;11.27;;;4.40;99.90;;;;;;5016947;28;20033;-50
2023/01/10 10:34:57;;;;;;;20.50;12.32;;;4.50;99.90;;;;;;5032974;28;20350;-49
2023/01/10 10:37:32;;;;;;;7.55;6.85;;;4.40;99.90;;;;;;5031437;28;20077;-51
2023/01/10 10:40:22;;;;;;;17.08;11.90;;;4.50;99.90;;;;;;5032852;28;20354;-51
2023/01/10 10:42:51;;;;;;;7.25;6.60;;;4.50;99.90;;;;;;5027504;28;20036;-50
2023/01/10 10:45:38;;;;;;;9.65;8.65;;;4.50;99.90;;;;;;5032086;28;20397;-54
2023/01/10 10:48:18;;;;;;;10.05;8.35;;;4.40;99.90;;;;;;5032787;28;20044;-53
2023/01/10 10:51:24;;;;;;;9.93;8.05;;;4.50;99.90;;;;;;5032580;28;20026;-54
2023/01/10 10:53:50;;;;;;;7.95;7.25;;;4.40;99.90;;;;;;5032036;28;20044;-56
2023/01/10 10:56:20;;;;;;;8.15;7.25;;;4.40;99.90;;;;;;5031683;28;20029;-51
2023/01/10 10:58:50;;;;;;;6.30;5.80;;;4.40;99.90;;;;;;5030808;28;20515;-52
2023/01/10 11:01:17;;;;;;;5.97;5.47;;;4.60;99.90;;;;;;5031050;28;20061;-58
2023/01/10 11:03:53;;;;;;;7.03;6.40;;;4.70;99.90;;;;;;5032340;28;20033;-54
2023/01/10 11:06:20;;;;;;;8.20;6.20;;;5.00;99.90;;;;;;5030722;28;20553;-57
2023/01/10 11:08:48;;;;;;;7.13;6.43;;;5.00;99.90;;;;;;5001266;28;20448;-56
2023/01/10 11:11:19;;;;;;;7.63;6.90;;;5.10;99.90;;;;;;5001643;28;20037;-54
2023/01/10 11:14:00;;;;;;;7.22;6.43;;;5.10;99.90;;;;;;5001306;28;20030;-52
2023/01/10 11:16:30;;;;;;;7.75;6.95;;;5.10;99.90;;;;;;5000913;28;20034;-54
2023/01/10 11:19:18;;;;;;;7.22;6.38;;;5.20;99.90;;;;;;5001695;28;20030;-51
2023/01/10 11:21:52;;;;;;;15.43;10.00;;;5.30;99.90;;;;;;5001376;28;20049;-56
2023/01/10 11:24:20;;;;;;;10.25;8.80;;;5.10;99.90;;;;;;5001822;28;20120;-50
2023/01/10 11:26:46;;;;;;;10.10;8.25;;;5.10;99.90;;;;;;5001036;28;20044;-52
2023/01/10 11:29:24;;;;;;;8.80;7.90;;;5.30;99.90;;;;;;5001276;28;20021;-49
2023/01/10 11:31:51;;;;;;;9.63;8.25;;;5.20;99.90;;;;;;5001692;28;20018;-55
2023/01/10 11:34:30;;;;;;;9.07;8.18;;;5.20;99.90;;;;;;5001257;28;20549;-52
2023/01/10 11:36:58;;;;;;;8.07;7.35;;;5.30;99.90;;;;;;5002222;28;20041;-53
2023/01/10 11:39:25;;;;;;;10.57;8.73;;;5.10;99.90;;;;;;5001977;28;20161;-53
2023/01/10 11:41:52;;;;;;;8.63;7.72;;;5.00;99.90;;;;;;5001503;28;20038;-56
2023/01/10 11:44:25;;;;;;;10.18;6.70;;;5.00;99.90;;;;;;5001524;28;20030;-53
2023/01/10 11:46:56;;;;;;;9.73;6.70;;;4.90;99.90;;;;;;5002493;28;20048;-58
2023/01/10 11:49:25;;;;;;;6.93;6.22;;;5.10;99.90;;;;;;5001229;28;20080;-53
2023/01/10 11:51:55;;;;;;;9.23;6.00;;;5.00;99.90;;;;;;5005858;28;20037;-56
2023/01/10 11:54:28;;;;;;;6.80;6.20;;;5.10;99.90;;;;;;5010993;28;20030;-56
2023/01/10 11:57:13;;;;;;;5.28;4.78;;;5.30;99.90;;;;;;5018823;28;20100;-53
2023/01/10 11:59:39;;;;;;;5.70;5.20;;;5.30;99.90;;;;;;5031476;28;20044;-52
2023/01/10 12:02:15;;;;;;;8.45;5.65;;;5.40;99.90;;;;;;5031395;28;20030;-57
2023/01/10 12:04:46;;;;;;;6.35;5.75;;;5.20;99.90;;;;;;5031338;28;20057;-54
2023/01/10 12:07:12;;;;;;;8.18;5.72;;;5.10;99.90;;;;;;5031603;28;20730;-56
2023/01/10 12:09:42;;;;;;;6.63;5.13;;;5.20;99.90;;;;;;5031119;28;20053;-55
2023/01/10 12:12:21;;;;;;;5.93;5.20;;;5.30;99.90;;;;;;5031557;28;20029;-55
2023/01/10 12:14:47;;;;;;;6.35;5.53;;;5.40;99.90;;;;;;5031691;28;20468;-53
2023/01/10 12:17:24;;;;;;;5.43;4.93;;;5.60;99.90;;;;;;5031406;28;20052;-53
2023/01/10 12:19:52;;;;;;;5.53;4.47;;;5.80;99.90;;;;;;5031615;28;20027;-52
2023/01/10 12:22:21;;;;;;;12.38;7.50;;;5.80;99.90;;;;;;5030738;28;20033;-51
2023/01/10 12:24:50;;;;;;;12.32;7.15;;;5.90;99.90;;;;;;5030089;28;20080;-53
2023/01/10 12:27:17;;;;;;;11.90;7.63;;;5.90;99.90;;;;;;5031469;28;20029;-52
2023/01/10 12:29:55;;;;;;;5.78;4.95;;;5.70;99.90;;;;;;5031401;28;20580;-54
2023/01/10 12:32:26;;;;;;;7.38;5.65;;;5.50;99.90;;;;;;5030964;28;20095;-58
2023/01/10 12:35:02;;;;;;;51.85;25.42;;;5.50;99.90;;;;;;5031229;28;20432;-55
2023/01/10 12:37:41;;;;;;;10.00;4.75;;;5.60;99.90;;;;;;5031201;28;20476;-51
2023/01/10 12:40:20;;;;;;;33.45;16.05;;;5.70;99.90;;;;;;5031199;28;20422;-52
2023/01/10 12:45:44;;;;;;;;;;;5.40;99.90;;;;;;5036402;28;20191;-55
2023/01/10 12:48:23;;;;;;;15.68;10.82;;;5.50;99.90;;;;;;5034561;28;19905;-56
2023/01/10 12:51:04;;;;;;;7.40;5.25;;;5.40;99.90;;;;;;5035091;28;20148;-56
2023/01/10 12:53:47;;;;;;;6.55;5.05;;;5.50;99.90;;;;;;5034336;28;20025;-54
2023/01/10 12:56:15;;;;;;;10.45;5.90;;;5.40;99.90;;;;;;5034173;28;20037;-53
2023/01/10 12:58:54;;;;;;;6.50;5.13;;;5.30;99.90;;;;;;5034667;28;20438;-53
2023/01/10 13:01:31;;;;;;;7.57;4.55;;;5.20;99.90;;;;;;5049636;28;20119;-52
2023/01/10 13:04:04;;;;;;;9.88;4.47;;;5.40;99.90;;;;;;5034520;28;20487;-52
2023/01/10 13:06:37;;;;;;;9.95;6.55;;;5.50;99.90;;;;;;5034478;28;20488;-53
2023/01/10 13:09:23;;;;;;;15.82;6.97;;;5.50;99.90;;;;;;5034600;28;20032;-54
2023/01/10 13:12:06;;;;;;;6.95;3.78;;;5.50;99.90;;;;;;5034304;28;20421;-53
2023/01/10 13:14:38;;;;;;;9.55;4.72;;;5.60;99.90;;;;;;5034144;28;20029;-51
2023/01/10 13:17:31;;;;;;;5.75;5.20;;;5.50;99.90;;;;;;5032911;28;20029;-53
2023/01/10 13:20:15;;;;;;;11.13;6.45;;;5.50;99.90;;;;;;5032544;28;20021;-55
2023/01/10 13:23:02;;;;;;;12.30;4.95;;;5.70;99.90;;;;;;5034007;28;20379;-49